Time;durP1;ratioP1;P1;durP2;ratioP2;P2;SDS_P1;SDS_P2;PMS_P1;PMS_P2;Temp;Humidity;BMP_temperature;BMP_pressure;BME280_temperature;BME280_humidity;BME280_pressure;Samples;Min_cycle;Max_cycle;Signal;HPM_P1;HPM_P2
2021/11/24 00:00:12;;;;;;;51.10;24.08;;;;;;;;;;5070384;28;20213;-73
2021/11/24 00:02:40;;;;;;;41.35;21.77;;;;;;;;;;5058453;28;20598;-74
2021/11/24 00:05:08;;;;;;;46.35;21.80;;;;;;;;;;5067931;28;20198;-73
2021/11/24 00:07:35;;;;;;;63.38;24.85;;;;;;;;;;5053774;28;20599;-73
2021/11/24 00:10:02;;;;;;;44.60;23.90;;;;;;;;;;5058671;28;20197;-73
2021/11/24 00:12:29;;;;;;;38.08;20.92;;;;;;;;;;5057059;28;20218;-73
2021/11/24 00:14:56;;;;;;;50.13;24.65;;;;;;;;;;5056077;28;20692;-74
2021/11/24 00:17:23;;;;;;;44.90;21.17;;;;;;;;;;5059132;28;20685;-73
2021/11/24 00:19:52;;;;;;;45.40;20.80;;;;;;;;;;5067038;28;20243;-73
2021/11/24 00:22:19;;;;;;;46.42;23.60;;;;;;;;;;5060407;28;20209;-74
2021/11/24 00:24:46;;;;;;;54.58;21.95;;;;;;;;;;5057688;28;20201;-75
2021/11/24 00:27:13;;;;;;;39.25;20.58;;;;;;;;;;5058983;28;20692;-74
2021/11/24 00:29:40;;;;;;;50.47;23.00;;;;;;;;;;5057552;28;20213;-75
2021/11/24 00:32:07;;;;;;;49.70;23.38;;;;;;;;;;5062024;28;20210;-74
2021/11/24 00:34:34;;;;;;;44.42;22.90;;;;;;;;;;5068252;28;20198;-75
2021/11/24 00:37:03;;;;;;;45.13;21.25;;;;;;;;;;5055142;28;20195;-73
2021/11/24 00:39:30;;;;;;;37.65;19.30;;;;;;;;;;5061566;28;20198;-73
2021/11/24 00:41:57;;;;;;;49.05;22.95;;;;;;;;;;5057298;28;20214;-74
2021/11/24 00:44:25;;;;;;;34.00;18.60;;;;;;;;;;5056060;28;20207;-74
2021/11/24 00:46:52;;;;;;;41.20;20.20;;;;;;;;;;5062294;28;20194;-74
2021/11/24 00:49:19;;;;;;;44.90;20.27;;;;;;;;;;5055222;28;20199;-74
2021/11/24 00:51:46;;;;;;;37.70;19.77;;;;;;;;;;5050357;28;20678;-73
2021/11/24 00:54:14;;;;;;;45.38;21.65;;;;;;;;;;5063941;28;20199;-74
2021/11/24 00:56:41;;;;;;;51.22;23.48;;;;;;;;;;5064300;28;20231;-74
2021/11/24 00:59:08;;;;;;;48.78;22.73;;;;;;;;;;5054475;28;20222;-75
2021/11/24 01:01:36;;;;;;;44.28;20.45;;;;;;;;;;5061664;28;20201;-73
2021/11/24 01:04:03;;;;;;;48.45;24.08;;;;;;;;;;5052398;28;20657;-74
2021/11/24 01:06:30;;;;;;;42.03;20.85;;;;;;;;;;5067135;28;20657;-74
2021/11/24 01:08:57;;;;;;;47.08;23.05;;;;;;;;;;5056283;28;20201;-75
2021/11/24 01:11:25;;;;;;;51.38;21.40;;;;;;;;;;5069446;28;20263;-74
2021/11/24 01:13:52;;;;;;;40.42;20.25;;;;;;;;;;5062506;28;20199;-74
2021/11/24 01:16:19;;;;;;;48.33;22.35;;;;;;;;;;5063787;28;20201;-74
2021/11/24 01:18:46;;;;;;;44.10;20.55;;;;;;;;;;5059314;28;20638;-74
2021/11/24 01:21:13;;;;;;;45.95;21.85;;;;;;;;;;5052334;28;20195;-74
2021/11/24 01:23:41;;;;;;;42.75;22.73;;;;;;;;;;5055947;28;20217;-73
2021/11/24 01:26:08;;;;;;;48.38;21.05;;;;;;;;;;5055492;28;20199;-76
2021/11/24 01:28:36;;;;;;;42.40;23.15;;;;;;;;;;5065923;28;20186;-74
2021/11/24 01:31:03;;;;;;;49.47;24.15;;;;;;;;;;5060855;28;20202;-74
2021/11/24 01:33:30;;;;;;;53.17;22.83;;;;;;;;;;5062447;28;20198;-74
2021/11/24 01:35:58;;;;;;;54.83;23.23;;;;;;;;;;5054757;28;20226;-75
2021/11/24 01:38:25;;;;;;;44.03;20.70;;;;;;;;;;5061200;28;20221;-74
2021/11/24 01:40:52;;;;;;;41.63;19.73;;;;;;;;;;5062440;28;20198;-74
2021/11/24 01:43:19;;;;;;;46.42;21.17;;;;;;;;;;5063161;28;20538;-74
2021/11/24 01:45:48;;;;;;;41.50;21.15;;;;;;;;;;5062628;28;20198;-74
2021/11/24 01:48:15;;;;;;;43.75;22.33;;;;;;;;;;5070645;28;20603;-73
2021/11/24 01:50:42;;;;;;;42.95;20.95;;;;;;;;;;5063877;28;20276;-73
2021/11/24 01:53:09;;;;;;;41.05;20.45;;;;;;;;;;5061160;28;20227;-74
2021/11/24 01:55:37;;;;;;;45.33;21.30;;;;;;;;;;5064323;28;20288;-74
2021/11/24 01:58:04;;;;;;;44.85;19.80;;;;;;;;;;5057465;28;20210;-74
2021/11/24 02:00:33;;;;;;;51.00;21.98;;;;;;;;;;5055954;28;20222;-74
2021/11/24 02:03:02;;;;;;;34.25;19.05;;;;;;;;;;5056962;28;20588;-75
2021/11/24 02:05:29;;;;;;;46.42;22.13;;;;;;;;;;5063487;28;20255;-74
2021/11/24 02:07:56;;;;;;;50.05;22.80;;;;;;;;;;5064381;28;20202;-75
2021/11/24 02:10:24;;;;;;;51.28;21.75;;;;;;;;;;5059561;28;20210;-74
2021/11/24 02:12:52;;;;;;;47.15;21.67;;;;;;;;;;5060997;28;20217;-75
2021/11/24 02:15:19;;;;;;;46.97;22.67;;;;;;;;;;5057310;28;20202;-73
2021/11/24 02:17:47;;;;;;;41.38;19.70;;;;;;;;;;5058337;28;20197;-74
2021/11/24 02:20:16;;;;;;;43.65;20.50;;;;;;;;;;5072983;28;20197;-73
2021/11/24 02:22:43;;;;;;;44.83;21.45;;;;;;;;;;5060655;28;20673;-74
2021/11/24 02:25:11;;;;;;;47.28;21.50;;;;;;;;;;5056292;28;20198;-75
2021/11/24 02:27:38;;;;;;;53.20;22.13;;;;;;;;;;5070270;28;20607;-73
2021/11/24 02:30:05;;;;;;;43.53;20.48;;;;;;;;;;5063308;28;20198;-75
2021/11/24 02:32:33;;;;;;;39.50;21.38;;;;;;;;;;5059521;28;20223;-74
2021/11/24 02:35:00;;;;;;;36.95;18.77;;;;;;;;;;5057598;28;20553;-74
2021/11/24 02:37:28;;;;;;;47.20;21.40;;;;;;;;;;5062330;28;20576;-74
2021/11/24 02:39:55;;;;;;;36.88;19.02;;;;;;;;;;5055990;28;20210;-74
2021/11/24 02:42:22;;;;;;;40.88;21.30;;;;;;;;;;5064500;28;20672;-73
2021/11/24 02:44:49;;;;;;;36.28;18.25;;;;;;;;;;5069801;28;20776;-73
2021/11/24 02:47:19;;;;;;;39.45;19.27;;;;;;;;;;5059985;28;20272;-74
2021/11/24 02:49:46;;;;;;;41.00;21.80;;;;;;;;;;5061729;28;20221;-74
2021/11/24 02:52:14;;;;;;;40.17;20.00;;;;;;;;;;5063539;28;20681;-74
2021/11/24 02:54:49;;;;;;;39.67;19.90;;;;;;;;;;5063030;28;20209;-74
2021/11/24 02:57:16;;;;;;;46.65;21.95;;;;;;;;;;5064039;28;20198;-74
2021/11/24 02:59:43;;;;;;;53.45;21.48;;;;;;;;;;5068889;28;20833;-74
2021/11/24 03:02:10;;;;;;;40.67;21.73;;;;;;;;;;5067800;28;20198;-73
2021/11/24 03:04:38;;;;;;;46.00;21.75;;;;;;;;;;5053259;28;20654;-75
2021/11/24 03:07:05;;;;;;;43.28;21.67;;;;;;;;;;5055563;28;20234;-75
2021/11/24 03:09:32;;;;;;;44.75;20.52;;;;;;;;;;5059886;28;20198;-73
2021/11/24 03:12:01;;;;;;;39.20;19.73;;;;;;;;;;5058709;28;20211;-75
2021/11/24 03:14:29;;;;;;;37.55;20.13;;;;;;;;;;5056372;28;20194;-74
2021/11/24 03:16:56;;;;;;;52.42;22.25;;;;;;;;;;5058420;28;20677;-74
2021/11/24 03:19:23;;;;;;;43.92;22.20;;;;;;;;;;5062425;28;20195;-73
2021/11/24 03:21:50;;;;;;;52.33;24.13;;;;;;;;;;5060651;28;20195;-75
2021/11/24 03:24:17;;;;;;;41.65;21.20;;;;;;;;;;5065594;28;20769;-76
2021/11/24 03:26:44;;;;;;;35.22;17.58;;;;;;;;;;5064511;28;20680;-75
2021/11/24 03:29:13;;;;;;;48.72;22.73;;;;;;;;;;5066584;28;20670;-75
2021/11/24 03:31:40;;;;;;;35.45;18.92;;;;;;;;;;5059301;28;20565;-74
2021/11/24 03:34:09;;;;;;;49.03;20.58;;;;;;;;;;5053704;28;20561;-74
2021/11/24 03:36:36;;;;;;;42.88;22.85;;;;;;;;;;5052254;28;20248;-74
2021/11/24 03:39:04;;;;;;;38.53;19.20;;;;;;;;;;5061606;28;20532;-73
2021/11/24 03:41:31;;;;;;;47.05;23.30;;;;;;;;;;5059168;28;20202;-74
2021/11/24 03:43:58;;;;;;;42.50;20.25;;;;;;;;;;5056612;28;20213;-75
2021/11/24 03:46:26;;;;;;;47.55;21.55;;;;;;;;;;5061960;28;20202;-74
2021/11/24 03:48:53;;;;;;;44.38;21.63;;;;;;;;;;5053200;28;20464;-74
2021/11/24 03:51:20;;;;;;;43.47;22.98;;;;;;;;;;5066796;28;20201;-75
2021/11/24 03:53:48;;;;;;;41.33;21.60;;;;;;;;;;5057184;28;20648;-74
2021/11/24 03:56:16;;;;;;;44.88;19.88;;;;;;;;;;5059258;28;20209;-76
2021/11/24 03:58:43;;;;;;;47.90;22.98;;;;;;;;;;5057796;28;20183;-78
2021/11/24 04:01:10;;;;;;;37.75;18.98;;;;;;;;;;5064527;28;20197;-73
2021/11/24 04:03:39;;;;;;;39.58;20.08;;;;;;;;;;5056016;28;20650;-74
2021/11/24 04:06:06;;;;;;;39.53;18.58;;;;;;;;;;5056630;28;20194;-74
2021/11/24 04:08:33;;;;;;;33.65;20.48;;;;;;;;;;5058986;28;20199;-74
2021/11/24 04:11:00;;;;;;;38.00;19.30;;;;;;;;;;5060386;28;20653;-74
2021/11/24 04:13:27;;;;;;;40.35;19.85;;;;;;;;;;5070121;28;20580;-74
2021/11/24 04:15:54;;;;;;;35.40;18.25;;;;;;;;;;5066368;28;20202;-73
2021/11/24 04:18:21;;;;;;;35.70;19.42;;;;;;;;;;5063096;28;20587;-74
2021/11/24 04:20:54;;;;;;;43.13;19.92;;;;;;;;;;5061947;28;20189;-75
2021/11/24 04:23:21;;;;;;;40.17;19.02;;;;;;;;;;5056294;28;20244;-74
2021/11/24 04:25:48;;;;;;;29.88;17.35;;;;;;;;;;5060020;28;20198;-74
2021/11/24 04:28:15;;;;;;;36.90;19.17;;;;;;;;;;5055353;28;20194;-74
2021/11/24 04:30:42;;;;;;;43.00;20.38;;;;;;;;;;5056582;28;20195;-76
2021/11/24 04:33:09;;;;;;;36.05;19.98;;;;;;;;;;5059179;28;20692;-76
2021/11/24 04:35:38;;;;;;;40.03;20.50;;;;;;;;;;5062477;28;20210;-76
2021/11/24 04:38:07;;;;;;;44.67;21.42;;;;;;;;;;5060330;28;20723;-75
2021/11/24 04:40:34;;;;;;;41.38;21.55;;;;;;;;;;5064221;28;20206;-75
2021/11/24 04:43:03;;;;;;;40.53;20.80;;;;;;;;;;5062395;28;20186;-75
2021/11/24 04:45:30;;;;;;;44.13;22.58;;;;;;;;;;5055440;28;20228;-75
2021/11/24 04:47:57;;;;;;;29.48;17.73;;;;;;;;;;5057851;28;20561;-76
2021/11/24 04:50:25;;;;;;;34.85;20.25;;;;;;;;;;5056447;28;20210;-74
2021/11/24 04:52:52;;;;;;;36.72;21.75;;;;;;;;;;5052686;28;20218;-74
2021/11/24 04:55:20;;;;;;;34.40;19.17;;;;;;;;;;5053751;28;20241;-74
2021/11/24 04:57:47;;;;;;;44.90;18.48;;;;;;;;;;5055223;28;20581;-75
2021/11/24 05:00:17;;;;;;;33.85;21.55;;;;;;;;;;5051130;28;20213;-74
2021/11/24 05:02:45;;;;;;;37.33;20.33;;;;;;;;;;5055162;28;20190;-75
2021/11/24 05:05:12;;;;;;;41.28;21.50;;;;;;;;;;5058507;28;20198;-75
2021/11/24 05:07:39;;;;;;;35.35;18.80;;;;;;;;;;5053554;28;20228;-76
2021/11/24 05:10:07;;;;;;;45.97;22.48;;;;;;;;;;5059023;28;20614;-74
2021/11/24 05:12:36;;;;;;;29.45;17.58;;;;;;;;;;5075343;28;20213;-74
2021/11/24 05:15:04;;;;;;;35.90;18.73;;;;;;;;;;5064180;28;20689;-74
2021/11/24 05:17:31;;;;;;;36.45;19.38;;;;;;;;;;5064633;28;20232;-74
2021/11/24 05:19:58;;;;;;;40.00;17.63;;;;;;;;;;5059870;28;20201;-76
2021/11/24 05:22:26;;;;;;;31.25;16.90;;;;;;;;;;5067801;28;20194;-75
2021/11/24 05:24:53;;;;;;;37.80;18.30;;;;;;;;;;5055850;28;20213;-74
2021/11/24 05:27:20;;;;;;;37.28;17.98;;;;;;;;;;5067209;28;20199;-74
2021/11/24 05:29:49;;;;;;;34.05;18.10;;;;;;;;;;5055571;28;20678;-73
2021/11/24 05:32:16;;;;;;;27.20;17.90;;;;;;;;;;5065060;28;20202;-74
2021/11/24 05:34:43;;;;;;;37.58;20.35;;;;;;;;;;5060190;28;20201;-74
2021/11/24 05:37:10;;;;;;;34.08;18.42;;;;;;;;;;5068112;28;21034;-74
2021/11/24 05:39:37;;;;;;;29.83;17.38;;;;;;;;;;5060895;28;20206;-74
2021/11/24 05:42:04;;;;;;;37.13;18.50;;;;;;;;;;5056334;28;20196;-75
2021/11/24 05:44:34;;;;;;;35.55;16.70;;;;;;;;;;5061978;28;20209;-75
2021/11/24 05:47:07;;;;;;;37.42;19.17;;;;;;;;;;5063215;28;20245;-74
2021/11/24 05:49:36;;;;;;;30.67;17.77;;;;;;;;;;5054917;28;20190;-74
2021/11/24 05:52:03;;;;;;;39.30;18.38;;;;;;;;;;5060722;28;20191;-75
2021/11/24 05:54:30;;;;;;;27.50;16.92;;;;;;;;;;5068428;28;20226;-74
2021/11/24 05:56:57;;;;;;;31.45;18.55;;;;;;;;;;5060545;28;20571;-74
2021/11/24 05:59:24;;;;;;;33.53;17.67;;;;;;;;;;5061238;28;20732;-74
2021/11/24 06:01:51;;;;;;;34.33;17.63;;;;;;;;;;5062349;28;20202;-73
2021/11/24 06:04:19;;;;;;;33.38;18.88;;;;;;;;;;5071158;28;20688;-74
2021/11/24 06:06:47;;;;;;;37.13;18.77;;;;;;;;;;5058565;28;20194;-74
2021/11/24 06:09:15;;;;;;;31.35;16.88;;;;;;;;;;5071347;28;20665;-75
2021/11/24 06:11:43;;;;;;;27.25;16.58;;;;;;;;;;5054407;28;20606;-75
2021/11/24 06:14:10;;;;;;;37.28;18.30;;;;;;;;;;5062444;28;20245;-74
2021/11/24 06:16:37;;;;;;;34.22;16.15;;;;;;;;;;5054099;28;20202;-74
2021/11/24 06:19:04;;;;;;;38.22;20.58;;;;;;;;;;5061103;28;20681;-74
2021/11/24 06:21:32;;;;;;;30.80;16.63;;;;;;;;;;5062490;28;20353;-75
2021/11/24 06:23:59;;;;;;;33.55;17.42;;;;;;;;;;5067159;28;20668;-74
2021/11/24 06:26:26;;;;;;;39.75;20.88;;;;;;;;;;5071931;28;20194;-74
2021/11/24 06:28:53;;;;;;;31.40;17.83;;;;;;;;;;5062036;28;20194;-74
2021/11/24 06:31:22;;;;;;;33.47;18.58;;;;;;;;;;5064054;28;20197;-74
2021/11/24 06:33:51;;;;;;;31.98;16.73;;;;;;;;;;5071528;28;20711;-75
2021/11/24 06:36:18;;;;;;;31.27;17.85;;;;;;;;;;5061786;28;20198;-74
2021/11/24 06:38:47;;;;;;;29.10;16.25;;;;;;;;;;5059591;28;20260;-75
2021/11/24 06:41:14;;;;;;;39.35;20.40;;;;;;;;;;5057703;28;20210;-74
2021/11/24 06:43:41;;;;;;;31.45;16.77;;;;;;;;;;5053158;28;20202;-76
2021/11/24 06:46:08;;;;;;;37.15;19.88;;;;;;;;;;5059368;28;20577;-73
2021/11/24 06:48:36;;;;;;;32.63;19.30;;;;;;;;;;5067080;28;20205;-74
2021/11/24 06:51:03;;;;;;;35.00;19.90;;;;;;;;;;5055562;28;20194;-74
2021/11/24 06:53:30;;;;;;;31.70;16.30;;;;;;;;;;5065399;28;20210;-74
2021/11/24 06:55:59;;;;;;;25.50;14.75;;;;;;;;;;5060133;28;20218;-74
2021/11/24 06:58:26;;;;;;;33.10;18.75;;;;;;;;;;5068822;28;20202;-73
2021/11/24 07:00:53;;;;;;;32.60;18.10;;;;;;;;;;5065299;28;20210;-76
2021/11/24 07:03:20;;;;;;;32.35;16.15;;;;;;;;;;5053835;28;20238;-77
2021/11/24 07:05:47;;;;;;;28.73;16.98;;;;;;;;;;5062620;28;20584;-75
2021/11/24 07:08:14;;;;;;;30.63;18.73;;;;;;;;;;5062427;28;20210;-76
2021/11/24 07:10:41;;;;;;;29.60;16.58;;;;;;;;;;5063125;28;20194;-76
2021/11/24 07:13:10;;;;;;;35.25;17.95;;;;;;;;;;5060298;28;20222;-76
2021/11/24 07:15:37;;;;;;;34.20;16.98;;;;;;;;;;5066396;28;20259;-75
2021/11/24 07:18:04;;;;;;;31.23;17.98;;;;;;;;;;5058516;28;20689;-75
2021/11/24 07:20:31;;;;;;;28.58;16.52;;;;;;;;;;5056442;28;20199;-75
2021/11/24 07:22:58;;;;;;;23.77;14.80;;;;;;;;;;5060382;28;20205;-77
2021/11/24 07:25:26;;;;;;;30.27;16.00;;;;;;;;;;5062248;28;20657;-75
2021/11/24 07:27:53;;;;;;;34.42;16.52;;;;;;;;;;5063853;28;20198;-77
2021/11/24 07:30:22;;;;;;;30.85;18.15;;;;;;;;;;5071651;28;20216;-76
2021/11/24 07:32:50;;;;;;;26.98;15.75;;;;;;;;;;5062844;28;20225;-74
2021/11/24 07:35:17;;;;;;;30.67;16.70;;;;;;;;;;5060421;28;20596;-72
2021/11/24 07:37:44;;;;;;;27.02;15.27;;;;;;;;;;5056655;28;20706;-74
2021/11/24 07:40:11;;;;;;;29.55;17.52;;;;;;;;;;5055072;28;20658;-74
2021/11/24 07:42:39;;;;;;;32.72;17.23;;;;;;;;;;5065612;28;20549;-75
2021/11/24 07:45:07;;;;;;;36.60;19.08;;;;;;;;;;5068114;28;20182;-77
2021/11/24 07:47:35;;;;;;;36.03;18.50;;;;;;;;;;5069013;28;20201;-74
2021/11/24 07:50:02;;;;;;;36.72;20.00;;;;;;;;;;5053392;28;20265;-75
2021/11/24 07:52:29;;;;;;;35.50;17.70;;;;;;;;;;5051750;28;20666;-76
2021/11/24 07:54:56;;;;;;;31.52;16.95;;;;;;;;;;5063322;28;20229;-74
2021/11/24 07:57:23;;;;;;;35.83;18.77;;;;;;;;;;5055775;28;20202;-75
2021/11/24 07:59:50;;;;;;;28.60;16.60;;;;;;;;;;5059043;28;20211;-74
2021/11/24 08:02:17;;;;;;;34.40;17.73;;;;;;;;;;5057916;28;20199;-74
2021/11/24 08:04:46;;;;;;;30.58;17.40;;;;;;;;;;5059351;28;20190;-76
2021/11/24 08:07:13;;;;;;;38.55;20.42;;;;;;;;;;5057575;28;20210;-76
2021/11/24 08:09:40;;;;;;;25.38;17.27;;;;;;;;;;5055644;28;20199;-75
2021/11/24 08:12:08;;;;;;;33.17;18.13;;;;;;;;;;5056370;28;20202;-75
2021/11/24 08:14:35;;;;;;;31.13;17.05;;;;;;;;;;5059092;28;20566;-76
2021/11/24 08:17:03;;;;;;;28.85;16.75;;;;;;;;;;5055872;28;20202;-74
2021/11/24 08:19:30;;;;;;;30.48;17.80;;;;;;;;;;5057082;28;20205;-74
2021/11/24 08:21:58;;;;;;;28.42;15.10;;;;;;;;;;5052672;28;20205;-75
2021/11/24 08:24:26;;;;;;;32.05;19.10;;;;;;;;;;5057256;28;20202;-74
2021/11/24 08:26:53;;;;;;;28.63;17.40;;;;;;;;;;5066563;28;20610;-75
2021/11/24 08:29:20;;;;;;;29.70;16.48;;;;;;;;;;5050733;28;20605;-74
2021/11/24 08:31:47;;;;;;;29.83;14.40;;;;;;;;;;5050425;28;20225;-74
2021/11/24 08:34:14;;;;;;;28.70;16.33;;;;;;;;;;5060067;28;20218;-73
2021/11/24 08:36:42;;;;;;;31.25;16.42;;;;;;;;;;5055480;28;20658;-74
2021/11/24 08:39:11;;;;;;;39.00;21.05;;;;;;;;;;5055177;28;20637;-75
2021/11/24 08:41:38;;;;;;;31.08;16.85;;;;;;;;;;5058465;28;20194;-74
2021/11/24 08:44:05;;;;;;;34.10;16.85;;;;;;;;;;5055675;28;20201;-74
2021/11/24 08:46:32;;;;;;;30.65;15.73;;;;;;;;;;5054644;28;20206;-74
2021/11/24 08:48:59;;;;;;;33.40;17.98;;;;;;;;;;5061323;28;20658;-76
2021/11/24 08:51:26;;;;;;;32.55;17.40;;;;;;;;;;5067784;28;20209;-74
2021/11/24 08:53:53;;;;;;;36.67;19.23;;;;;;;;;;5053439;28;20223;-75
2021/11/24 08:56:22;;;;;;;37.95;18.23;;;;;;;;;;5059584;28;20205;-73
2021/11/24 08:58:49;;;;;;;38.10;17.90;;;;;;;;;;5055584;28;20207;-74
2021/11/24 09:01:16;;;;;;;31.17;17.58;;;;;;;;;;5051387;28;20202;-74
2021/11/24 09:03:43;;;;;;;43.03;19.75;;;;;;;;;;5058634;28;20194;-74
2021/11/24 09:06:10;;;;;;;38.13;19.10;;;;;;;;;;5060559;28;20226;-74
2021/11/24 09:08:37;;;;;;;39.20;19.00;;;;;;;;;;5060446;28;20493;-73
2021/11/24 09:11:04;;;;;;;30.20;17.38;;;;;;;;;;5060127;28;20199;-74
2021/11/24 09:13:33;;;;;;;32.28;17.85;;;;;;;;;;5055738;28;20202;-74
2021/11/24 09:16:00;;;;;;;33.75;19.15;;;;;;;;;;5060855;28;20198;-75
2021/11/24 09:18:27;;;;;;;38.60;20.13;;;;;;;;;;5057351;28;20609;-75
2021/11/24 09:20:54;;;;;;;32.50;17.38;;;;;;;;;;5070103;28;20574;-74
2021/11/24 09:23:22;;;;;;;35.45;18.08;;;;;;;;;;5060999;28;20201;-77
2021/11/24 09:25:54;;;;;;;35.72;17.88;;;;;;;;;;5054103;28;20547;-74
2021/11/24 09:28:24;;;;;;;31.98;16.63;;;;;;;;;;5050916;28;20285;-74
2021/11/24 09:30:52;;;;;;;31.38;17.52;;;;;;;;;;5056733;28;20198;-74
2021/11/24 09:33:20;;;;;;;24.95;16.23;;;;;;;;;;5055487;28;20202;-75
2021/11/24 09:35:47;;;;;;;27.23;16.55;;;;;;;;;;5057916;28;20218;-74
2021/11/24 09:38:14;;;;;;;30.45;16.67;;;;;;;;;;5061212;28;20201;-74
2021/11/24 09:40:41;;;;;;;37.33;18.17;;;;;;;;;;5052094;28;20569;-74
2021/11/24 09:43:10;;;;;;;31.98;16.45;;;;;;;;;;5051445;28;20688;-75
2021/11/24 09:45:38;;;;;;;32.10;18.52;;;;;;;;;;5061804;28;20218;-75
2021/11/24 09:48:06;;;;;;;33.40;17.60;;;;;;;;;;5068927;28;20715;-75
2021/11/24 09:50:34;;;;;;;28.77;17.00;;;;;;;;;;5062427;28;20213;-74
2021/11/24 09:53:01;;;;;;;34.03;17.48;;;;;;;;;;5061014;28;20191;-77
2021/11/24 09:55:30;;;;;;;28.73;16.05;;;;;;;;;;5062943;28;20225;-76
2021/11/24 09:57:57;;;;;;;24.98;15.95;;;;;;;;;;5053161;28;20198;-77
2021/11/24 10:00:26;;;;;;;30.45;17.70;;;;;;;;;;5061556;28;20684;-77
2021/11/24 10:02:53;;;;;;;32.13;16.95;;;;;;;;;;5057533;28;20199;-76
2021/11/24 10:05:23;;;;;;;27.00;16.15;;;;;;;;;;5063335;28;20190;-75
2021/11/24 10:07:50;;;;;;;34.40;15.45;;;;;;;;;;5066447;28;20210;-76
2021/11/24 10:10:17;;;;;;;27.45;15.75;;;;;;;;;;5060742;28;20683;-76
2021/11/24 10:12:44;;;;;;;24.92;15.32;;;;;;;;;;5054911;28;20205;-76
2021/11/24 10:15:12;;;;;;;28.30;15.10;;;;;;;;;;5064047;28;20210;-76
2021/11/24 10:17:39;;;;;;;31.00;14.63;;;;;;;;;;5067621;28;20293;-76
2021/11/24 10:20:08;;;;;;;26.75;14.05;;;;;;;;;;5068819;28;20594;-77
2021/11/24 10:22:37;;;;;;;24.75;13.43;;;;;;;;;;5065628;28;20218;-76
2021/11/24 10:25:06;;;;;;;28.95;14.27;;;;;;;;;;5056147;28;20191;-75
2021/11/24 10:27:35;;;;;;;24.25;15.35;;;;;;;;;;5072977;28;20198;-76
2021/11/24 10:30:02;;;;;;;24.35;14.43;;;;;;;;;;5073754;28;20202;-76
2021/11/24 10:32:30;;;;;;;24.60;14.32;;;;;;;;;;5063850;28;20716;-76
2021/11/24 10:34:57;;;;;;;28.38;16.05;;;;;;;;;;5065253;28;20692;-76
2021/11/24 10:37:24;;;;;;;23.13;14.30;;;;;;;;;;5067314;28;20198;-76
2021/11/24 10:39:57;;;;;;;21.35;12.07;;;;;;;;;;5068898;28;20194;-76
2021/11/24 10:42:25;;;;;;;21.13;14.02;;;;;;;;;;5056645;28;20212;-75
2021/11/24 10:44:53;;;;;;;26.83;14.15;;;;;;;;;;5070108;28;20677;-76
2021/11/24 10:47:21;;;;;;;26.52;15.43;;;;;;;;;;5063610;28;20202;-76
2021/11/24 10:49:50;;;;;;;25.63;14.48;;;;;;;;;;5058816;28;20202;-75
2021/11/24 10:52:18;;;;;;;23.88;12.40;;;;;;;;;;5054525;28;20611;-76
2021/11/24 10:54:56;;;;;;;25.33;15.25;;;;;;;;;;5057106;28;20229;-77
2021/11/24 10:57:24;;;;;;;22.33;13.20;;;;;;;;;;5061475;28;20296;-76
2021/11/24 10:59:51;;;;;;;23.77;13.85;;;;;;;;;;5072402;28;20241;-76
2021/11/24 11:02:20;;;;;;;22.20;14.20;;;;;;;;;;5055875;28;20202;-76
2021/11/24 11:04:57;;;;;;;25.58;13.98;;;;;;;;;;5059003;28;20190;-77
2021/11/24 11:07:24;;;;;;;24.42;15.05;;;;;;;;;;5065125;28;20201;-76
2021/11/24 11:09:59;;;;;;;24.73;15.23;;;;;;;;;;5063605;28;20194;-76
2021/11/24 11:12:29;;;;;;;26.40;13.45;;;;;;;;;;5054018;28;20661;-74
2021/11/24 11:15:11;;;;;;;23.02;13.75;;;;;;;;;;5053349;28;20218;-74
2021/11/24 11:17:47;;;;;;;22.33;13.95;;;;;;;;;;5070024;28;20197;-73
2021/11/24 11:20:14;;;;;;;24.25;13.38;;;;;;;;;;5062294;28;20202;-74
2021/11/24 11:22:42;;;;;;;22.20;12.07;;;;;;;;;;5066067;28;20205;-75
2021/11/24 11:25:09;;;;;;;21.58;13.50;;;;;;;;;;5056402;28;20190;-74
2021/11/24 11:27:37;;;;;;;24.17;12.68;;;;;;;;;;5055287;28;20207;-75
2021/11/24 11:30:05;;;;;;;25.48;13.80;;;;;;;;;;5058368;28;20194;-76
2021/11/24 11:32:33;;;;;;;19.58;12.82;;;;;;;;;;5055167;28;20205;-76
2021/11/24 11:35:00;;;;;;;24.85;14.00;;;;;;;;;;5049787;28;20214;-76
2021/11/24 11:37:27;;;;;;;20.92;13.40;;;;;;;;;;5051204;28;20194;-75
2021/11/24 11:39:54;;;;;;;23.02;14.27;;;;;;;;;;5051787;28;20225;-76
2021/11/24 11:42:21;;;;;;;25.83;13.18;;;;;;;;;;5055869;28;20688;-76
2021/11/24 11:44:50;;;;;;;26.33;13.68;;;;;;;;;;5060642;28;20195;-76
2021/11/24 11:47:17;;;;;;;24.00;11.70;;;;;;;;;;5062046;28;20680;-75
2021/11/24 11:49:44;;;;;;;24.38;15.30;;;;;;;;;;5048441;28;20202;-77
2021/11/24 11:52:12;;;;;;;22.05;12.63;;;;;;;;;;5049335;28;20669;-76
2021/11/24 11:54:39;;;;;;;25.08;13.88;;;;;;;;;;5051154;28;20260;-76
2021/11/24 11:57:16;;;;;;;22.35;13.63;;;;;;;;;;5069347;28;20213;-76
2021/11/24 11:59:43;;;;;;;27.67;14.90;;;;;;;;;;5053875;28;20213;-76
2021/11/24 12:02:12;;;;;;;25.17;14.25;;;;;;;;;;5058238;28;20202;-75
2021/11/24 12:04:45;;;;;;;25.92;16.90;;;;;;;;;;5049616;28;20700;-75
2021/11/24 12:07:16;;;;;;;21.48;12.45;;;;;;;;;;5049304;28;20203;-75
2021/11/24 12:09:50;;;;;;;24.25;13.73;;;;;;;;;;5058268;28;20195;-77
2021/11/24 12:12:21;;;;;;;26.88;13.98;;;;;;;;;;5054816;28;20638;-77
2021/11/24 12:14:52;;;;;;;24.45;14.52;;;;;;;;;;5060681;28;20744;-76
2021/11/24 12:17:39;;;;;;;23.55;14.40;;;;;;;;;;5050679;28;20264;-76
2021/11/24 12:20:23;;;;;;;21.42;12.48;;;;;;;;;;5053908;28;20570;-76
2021/11/24 12:22:54;;;;;;;23.10;12.45;;;;;;;;;;5055559;28;20206;-75
2021/11/24 12:25:39;;;;;;;23.63;12.27;;;;;;;;;;5056600;28;20701;-76
2021/11/24 12:28:09;;;;;;;19.38;12.45;;;;;;;;;;5051121;28;20194;-78
2021/11/24 12:30:53;;;;;;;23.85;13.65;;;;;;;;;;5058600;28;20712;-75
2021/11/24 12:33:23;;;;;;;19.70;13.40;;;;;;;;;;5047717;28;20207;-76
2021/11/24 12:35:51;;;;;;;22.42;11.80;;;;;;;;;;5050365;28;20309;-75
2021/11/24 12:38:20;;;;;;;22.80;13.18;;;;;;;;;;5049567;28;20198;-76
2021/11/24 12:40:49;;;;;;;25.02;14.25;;;;;;;;;;5045628;28;20203;-76
2021/11/24 12:43:17;;;;;;;24.00;12.68;;;;;;;;;;5050299;28;20198;-75
2021/11/24 12:46:00;;;;;;;25.65;14.45;;;;;;;;;;5049233;28;20198;-76
2021/11/24 12:48:33;;;;;;;22.75;15.32;;;;;;;;;;5052315;28;20222;-76
2021/11/24 12:51:01;;;;;;;22.00;13.63;;;;;;;;;;5056263;28;20317;-76
2021/11/24 12:53:28;;;;;;;23.52;12.90;;;;;;;;;;5055499;28;20202;-77
2021/11/24 12:56:05;;;;;;;26.20;14.73;;;;;;;;;;5057374;28;20228;-76
2021/11/24 12:58:32;;;;;;;23.17;13.13;;;;;;;;;;5049638;28;20205;-76
2021/11/24 13:01:05;;;;;;;24.13;14.38;;;;;;;;;;5054381;28;20246;-78
2021/11/24 13:03:34;;;;;;;24.77;15.20;;;;;;;;;;5050640;28;20245;-78
2021/11/24 13:06:01;;;;;;;24.48;13.45;;;;;;;;;;5062198;28;20193;-78
2021/11/24 13:08:28;;;;;;;26.10;15.00;;;;;;;;;;5058274;28;20206;-76
2021/11/24 13:11:02;;;;;;;26.33;13.25;;;;;;;;;;5065456;28;20206;-76
2021/11/24 13:13:29;;;;;;;24.17;14.13;;;;;;;;;;5049957;28;20206;-77
2021/11/24 13:15:56;;;;;;;29.08;14.38;;;;;;;;;;5061527;28;20259;-76
2021/11/24 13:18:23;;;;;;;25.33;14.80;;;;;;;;;;5061700;28;20206;-77
2021/11/24 13:20:52;;;;;;;27.42;14.13;;;;;;;;;;5068576;28;20221;-76
2021/11/24 13:23:22;;;;;;;25.67;12.18;;;;;;;;;;5060160;28;20202;-77
2021/11/24 13:25:49;;;;;;;21.63;12.30;;;;;;;;;;5054634;28;20198;-76
2021/11/24 13:28:17;;;;;;;29.83;15.13;;;;;;;;;;5058822;28;20198;-77
2021/11/24 13:30:45;;;;;;;22.38;12.38;;;;;;;;;;5055597;28;20588;-77
2021/11/24 13:33:14;;;;;;;22.80;11.88;;;;;;;;;;5060054;28;20590;-77
2021/11/24 13:35:42;;;;;;;20.85;11.80;;;;;;;;;;5056668;28;20223;-76
2021/11/24 13:38:11;;;;;;;19.00;12.73;;;;;;;;;;5060309;28;20439;-77
2021/11/24 13:40:39;;;;;;;21.38;12.43;;;;;;;;;;5055354;28;20632;-77
2021/11/24 13:43:07;;;;;;;21.83;12.73;;;;;;;;;;5054920;28;20245;-76
2021/11/24 13:45:34;;;;;;;23.85;13.68;;;;;;;;;;5064466;28;20197;-77
2021/11/24 13:48:11;;;;;;;23.60;13.13;;;;;;;;;;5056649;28;20554;-78
2021/11/24 13:50:39;;;;;;;30.02;16.67;;;;;;;;;;5063864;28;20197;-77
2021/11/24 13:53:24;;;;;;;41.70;19.77;;;;;;;;;;5063099;28;20224;-77
2021/11/24 13:56:10;;;;;;;31.17;17.38;;;;;;;;;;5057365;28;20211;-75
2021/11/24 13:58:37;;;;;;;33.55;20.00;;;;;;;;;;5067057;28;20441;-75
2021/11/24 14:01:10;;;;;;;35.20;17.15;;;;;;;;;;5059102;28;20979;-76
2021/11/24 14:03:38;;;;;;;33.55;17.15;;;;;;;;;;5057485;28;20202;-75
2021/11/24 14:06:05;;;;;;;33.40;16.45;;;;;;;;;;5057195;28;20195;-75
2021/11/24 14:08:39;;;;;;;31.35;16.73;;;;;;;;;;5062097;28;20595;-76
2021/11/24 14:11:06;;;;;;;32.20;16.95;;;;;;;;;;5067602;28;20197;-75
2021/11/24 14:13:34;;;;;;;32.88;17.88;;;;;;;;;;5057483;28;20604;-75
2021/11/24 14:16:09;;;;;;;28.70;16.40;;;;;;;;;;5056688;28;20222;-75
2021/11/24 14:18:36;;;;;;;31.45;17.15;;;;;;;;;;5061885;28;21790;-75
2021/11/24 14:21:03;;;;;;;30.92;15.82;;;;;;;;;;5061716;28;20190;-76